createdAt,value
2022-10-19T00:01:38.346Z,13.40
2022-10-19T00:05:40.171Z,13.40
2022-10-19T00:09:44.338Z,13.30
2022-10-19T00:13:46.132Z,13.20
2022-10-19T00:17:47.930Z,13.10
2022-10-19T00:25:56.856Z,13.00
2022-10-19T00:29:58.811Z,12.90
2022-10-19T00:34:00.703Z,12.80
2022-10-19T00:38:02.532Z,12.70
2022-10-19T00:42:04.424Z,12.70
2022-10-19T00:46:06.216Z,12.60
2022-10-19T00:50:08.881Z,12.50
2022-10-19T00:54:10.785Z,12.40
2022-10-19T00:58:12.632Z,12.30
2022-10-19T01:06:28.173Z,12.20
2022-10-19T01:10:57.039Z,12.20
2022-10-19T01:15:41.551Z,12.20
2022-10-19T01:20:33.369Z,12.10
2022-10-19T01:25:07.014Z,12.10
2022-10-19T01:29:24.917Z,12.00
2022-10-19T01:33:45.433Z,12.00
2022-10-19T01:37:50.340Z,11.90
2022-10-19T01:42:03.216Z,11.80
2022-10-19T01:46:11.906Z,11.80
2022-10-19T01:50:17.602Z,11.70
2022-10-19T01:54:19.609Z,11.70
2022-10-19T01:58:29.854Z,11.60
2022-10-19T02:02:31.967Z,11.60
2022-10-19T02:06:46.628Z,11.60
2022-10-19T02:10:48.433Z,11.60
2022-10-19T02:14:59.648Z,11.70
2022-10-19T02:19:07.618Z,11.80
2022-10-19T02:23:09.524Z,11.80
2022-10-19T02:27:11.864Z,11.70
2022-10-19T02:31:13.611Z,11.70
2022-10-19T02:35:15.713Z,11.60
2022-10-19T02:39:17.483Z,11.60
2022-10-19T02:43:21.355Z,11.60
2022-10-19T02:47:35.992Z,11.70
2022-10-19T02:52:01.901Z,11.80
2022-10-19T02:56:04.056Z,11.80
2022-10-19T03:00:08.027Z,11.80
2022-10-19T03:04:10.024Z,11.90
2022-10-19T03:08:15.090Z,11.90
2022-10-19T03:12:17.587Z,12.00
2022-10-19T03:16:19.592Z,12.00
2022-10-19T03:20:21.737Z,12.00
2022-10-19T03:24:25.931Z,12.00
2022-10-19T03:28:28.073Z,12.00
2022-10-19T03:32:29.988Z,12.00
2022-10-19T03:36:34.120Z,12.10
2022-10-19T03:40:36.043Z,12.00
2022-10-19T03:44:37.964Z,12.00
2022-10-19T03:48:39.803Z,12.00
2022-10-19T03:52:45.325Z,12.00
2022-10-19T03:56:47.246Z,12.00
2022-10-19T04:00:49.151Z,12.10
2022-10-19T04:04:51.214Z,12.10
2022-10-19T04:08:53.151Z,12.20
2022-10-19T04:12:56.075Z,12.20
2022-10-19T04:16:58.138Z,12.10
2022-10-19T04:21:02.469Z,12.10
2022-10-19T04:25:05.464Z,12.10
2022-10-19T04:29:10.688Z,12.10
2022-10-19T04:33:12.692Z,12.10
2022-10-19T04:37:14.767Z,12.10
2022-10-19T04:41:19.722Z,12.10
2022-10-19T04:45:21.604Z,12.00
2022-10-19T04:49:23.522Z,12.00
2022-10-19T04:53:25.533Z,12.10
2022-10-19T04:57:27.625Z,12.00
2022-10-19T05:01:30.913Z,12.10
2022-10-19T05:05:33.309Z,12.10
2022-10-19T05:09:35.241Z,12.10
2022-10-19T05:13:37.262Z,12.10
2022-10-19T05:17:54.080Z,12.10
2022-10-19T05:21:55.937Z,12.10
2022-10-19T05:26:12.855Z,12.10
2022-10-19T05:30:14.822Z,12.10
2022-10-19T05:34:16.702Z,12.10
2022-10-19T05:38:18.790Z,12.10
2022-10-19T05:42:45.498Z,12.00
2022-10-19T05:46:51.508Z,12.00
2022-10-19T05:50:57.274Z,12.00
2022-10-19T05:54:59.594Z,12.00
2022-10-19T05:59:04.436Z,12.00
2022-10-19T06:03:06.325Z,12.00
2022-10-19T06:07:08.241Z,12.00
2022-10-19T06:11:15.853Z,12.00
2022-10-19T06:15:17.800Z,12.10
2022-10-19T06:19:19.874Z,12.10
2022-10-19T06:23:21.711Z,12.20
2022-10-19T06:27:23.635Z,12.30
2022-10-19T06:31:25.638Z,12.20
2022-10-19T06:35:32.876Z,12.40
2022-10-19T06:39:34.816Z,12.30
2022-10-19T06:43:36.937Z,12.80
2022-10-19T06:47:39.235Z,13.40
2022-10-19T06:51:41.320Z,13.80
2022-10-19T06:55:43.178Z,14.10
2022-10-19T07:00:56.605Z,14.30
2022-10-19T07:05:06.141Z,14.30
2022-10-19T07:09:59.052Z,14.10
2022-10-19T07:14:10.073Z,14.10
2022-10-19T07:18:29.147Z,14.10
2022-10-19T07:22:59.193Z,14.00
2022-10-19T07:27:08.801Z,13.90
2022-10-19T07:32:09.754Z,14.00
2022-10-19T07:36:15.413Z,14.00
2022-10-19T07:40:17.383Z,14.00
2022-10-19T07:44:19.797Z,13.80
2022-10-19T07:48:21.741Z,13.70
2022-10-19T07:52:23.843Z,13.70
2022-10-19T07:56:27.286Z,13.50
2022-10-19T08:00:29.954Z,13.60
2022-10-19T08:08:57.227Z,13.70
2022-10-19T08:12:59.433Z,13.80
2022-10-19T08:17:17.233Z,13.70
2022-10-19T08:21:19.414Z,13.70
2022-10-19T08:30:02.377Z,13.80
2022-10-19T08:34:14.844Z,13.90
2022-10-19T08:38:26.564Z,13.90
2022-10-19T08:43:05.590Z,13.90
2022-10-19T08:47:58.820Z,14.10
2022-10-19T08:52:30.756Z,14.00
2022-10-19T08:57:00.989Z,14.10
2022-10-19T09:02:03.845Z,14.10
2022-10-19T09:06:32.263Z,14.10
2022-10-19T09:10:44.847Z,14.10
2022-10-19T09:15:40.610Z,14.20
2022-10-19T09:19:48.483Z,14.30
2022-10-19T09:24:31.786Z,14.50
2022-10-19T09:29:04.209Z,14.50
2022-10-19T09:33:35.742Z,14.40
2022-10-19T09:37:40.656Z,14.70
2022-10-19T09:42:11.946Z,15.00
2022-10-19T09:47:11.528Z,14.90
2022-10-19T09:51:19.288Z,14.90
2022-10-19T09:56:14.981Z,14.90
2022-10-19T10:00:39.170Z,15.00
2022-10-19T10:04:41.652Z,15.00
2022-10-19T10:09:01.106Z,15.00
2022-10-19T10:13:28.430Z,15.20
2022-10-19T10:17:38.871Z,15.00
2022-10-19T10:22:17.162Z,15.10
2022-10-19T10:26:39.299Z,15.30
2022-10-19T10:31:03.079Z,15.30
2022-10-19T10:36:02.461Z,15.00
2022-10-19T10:41:01.105Z,15.10
2022-10-19T10:45:03.332Z,15.10
2022-10-19T10:49:24.460Z,15.10
2022-10-19T10:53:52.145Z,15.10
2022-10-19T10:59:09.983Z,15.10
2022-10-19T11:03:29.210Z,15.00
2022-10-19T11:07:37.012Z,15.10
2022-10-19T11:11:53.820Z,15.10
2022-10-19T11:16:13.785Z,14.90
2022-10-19T11:20:26.188Z,14.90
2022-10-19T11:24:59.954Z,14.80
2022-10-19T11:29:01.829Z,14.70
2022-10-19T11:38:19.717Z,14.50
2022-10-19T11:42:38.188Z,14.40
2022-10-19T11:46:55.155Z,14.30
2022-10-19T11:51:43.821Z,14.60
2022-10-19T11:56:19.265Z,14.40
2022-10-19T12:00:38.128Z,14.40
2022-10-19T12:04:49.515Z,14.50
2022-10-19T12:09:32.164Z,14.50
2022-10-19T12:13:56.255Z,14.50
2022-10-19T12:18:04.375Z,14.60
2022-10-19T12:22:07.450Z,14.60
2022-10-19T12:26:11.418Z,14.70
2022-10-19T12:30:23.012Z,14.80
2022-10-19T12:34:33.111Z,14.80
2022-10-19T12:39:00.576Z,14.90
2022-10-19T12:43:17.478Z,14.80
2022-10-19T12:47:21.910Z,14.50
2022-10-19T12:51:24.026Z,14.50
2022-10-19T12:55:29.865Z,14.50
2022-10-19T12:59:36.176Z,14.70
2022-10-19T13:03:41.330Z,14.70
2022-10-19T13:07:43.540Z,14.80
2022-10-19T13:12:22.034Z,14.80
2022-10-19T13:16:28.675Z,14.80
2022-10-19T13:20:33.340Z,15.00
2022-10-19T13:24:38.145Z,15.00
2022-10-19T13:28:40.201Z,15.00
2022-10-19T13:32:45.540Z,15.00
2022-10-19T13:37:11.577Z,15.00
2022-10-19T13:41:27.289Z,14.90
2022-10-19T13:45:29.233Z,14.90
2022-10-19T13:49:32.649Z,14.80
2022-10-19T13:54:00.782Z,14.80
2022-10-19T13:58:22.858Z,14.80
2022-10-19T14:03:11.680Z,14.80
2022-10-19T14:07:26.552Z,14.60
2022-10-19T14:11:33.278Z,14.70
2022-10-19T14:16:35.875Z,14.80
2022-10-19T14:21:14.427Z,14.80
2022-10-19T14:25:42.722Z,14.90
2022-10-19T14:29:48.183Z,15.00
2022-10-19T14:34:36.536Z,15.00
2022-10-19T14:44:58.719Z,14.80
2022-10-19T14:49:14.472Z,14.80
2022-10-19T14:53:41.267Z,14.80
2022-10-19T15:02:45.279Z,14.70
2022-10-19T15:06:47.139Z,14.60
2022-10-19T15:10:59.267Z,14.60
2022-10-19T15:15:24.791Z,14.50
2022-10-19T15:19:49.989Z,14.40
2022-10-19T15:23:55.665Z,14.40
2022-10-19T15:28:00.724Z,14.40
2022-10-19T15:32:28.349Z,14.30
2022-10-19T15:36:34.019Z,14.30
2022-10-19T15:40:38.998Z,14.20
2022-10-19T15:45:38.327Z,14.20
2022-10-19T15:49:43.271Z,14.10
2022-10-19T15:59:19.560Z,13.90
2022-10-19T16:03:24.060Z,14.00
2022-10-19T16:07:31.590Z,13.80
2022-10-19T16:11:35.440Z,13.80
2022-10-19T16:15:37.485Z,13.70
2022-10-19T16:19:39.391Z,13.60
2022-10-19T16:23:42.235Z,13.50
2022-10-19T16:27:44.419Z,13.40
2022-10-19T16:31:46.596Z,13.30
2022-10-19T16:35:48.533Z,13.20
2022-10-19T16:39:53.550Z,13.20
2022-10-19T16:44:45.878Z,13.20
2022-10-19T16:49:17.445Z,13.20
2022-10-19T16:53:30.279Z,13.00
2022-10-19T16:57:38.510Z,12.90
2022-10-19T17:01:53.659Z,12.80
2022-10-19T17:05:58.503Z,12.70
2022-10-19T17:10:00.990Z,12.50
2022-10-19T17:14:14.044Z,12.40
2022-10-19T17:18:23.448Z,12.40
2022-10-19T17:22:32.816Z,12.20
2022-10-19T17:26:38.049Z,12.10
2022-10-19T17:30:45.175Z,12.00
2022-10-19T17:34:54.590Z,11.90
2022-10-19T17:39:11.920Z,11.80
2022-10-19T17:44:22.713Z,11.60
2022-10-19T17:48:34.124Z,11.50
2022-10-19T17:52:44.923Z,11.30
2022-10-19T17:56:47.257Z,11.20
2022-10-19T18:01:07.191Z,11.00
2022-10-19T18:05:38.034Z,11.00
2022-10-19T18:09:47.728Z,10.90
2022-10-19T18:14:21.710Z,10.70
2022-10-19T18:18:42.157Z,10.60
2022-10-19T18:22:46.950Z,10.50
2022-10-19T18:26:59.763Z,10.40
2022-10-19T18:31:25.669Z,10.30
2022-10-19T18:35:27.660Z,10.20
2022-10-19T18:39:29.758Z,10.10
2022-10-19T18:43:31.883Z,10.00
2022-10-19T18:47:39.794Z,10.00
2022-10-19T18:51:43.414Z,9.90
2022-10-19T18:56:07.096Z,9.80
2022-10-19T19:00:15.479Z,9.70
2022-10-19T19:04:17.736Z,9.60
2022-10-19T19:08:20.138Z,9.50
2022-10-19T19:12:25.799Z,9.40
2022-10-19T19:17:09.870Z,9.40
2022-10-19T19:21:30.673Z,9.30
2022-10-19T19:25:46.071Z,9.10
2022-10-19T19:30:03.714Z,9.10
2022-10-19T19:34:34.140Z,9.00
2022-10-19T19:38:41.080Z,9.00
2022-10-19T19:42:52.048Z,8.90
2022-10-19T19:47:09.160Z,8.80
2022-10-19T19:51:17.009Z,8.80
2022-10-19T19:56:28.343Z,8.70
2022-10-19T20:01:07.314Z,8.70
2022-10-19T20:05:10.107Z,8.60
2022-10-19T20:09:23.219Z,8.50
2022-10-19T20:13:26.426Z,8.50
2022-10-19T20:17:36.070Z,8.40
2022-10-19T20:21:39.103Z,8.30
2022-10-19T20:25:41.053Z,8.20
2022-10-19T20:29:43.244Z,8.30
2022-10-19T20:33:47.581Z,8.20
2022-10-19T20:37:50.541Z,8.20
2022-10-19T20:41:53.238Z,8.20
2022-10-19T20:46:06.378Z,8.00
2022-10-19T20:50:09.123Z,8.00
2022-10-19T20:54:12.382Z,7.90
2022-10-19T20:58:14.315Z,7.80
2022-10-19T21:02:16.735Z,7.90
2022-10-19T21:06:18.978Z,7.80
2022-10-19T21:10:20.854Z,7.70
2022-10-19T21:14:27.234Z,7.70
2022-10-19T21:18:30.556Z,7.70
2022-10-19T21:22:41.498Z,7.70
2022-10-19T21:26:43.713Z,7.60
2022-10-19T21:30:45.610Z,7.60
2022-10-19T21:34:47.488Z,7.50
2022-10-19T21:38:49.293Z,7.50
2022-10-19T21:42:51.154Z,7.50
2022-10-19T21:46:53.191Z,7.50
2022-10-19T21:50:55.083Z,7.40
2022-10-19T21:54:57.007Z,7.40
2022-10-19T21:58:58.960Z,7.40
2022-10-19T22:03:00.872Z,7.40
2022-10-19T22:07:02.821Z,7.30
2022-10-19T22:11:06.777Z,7.20
2022-10-19T22:15:09.380Z,7.20
2022-10-19T22:19:11.351Z,7.20
2022-10-19T22:23:13.189Z,7.10
2022-10-19T22:27:15.550Z,7.00
2022-10-19T22:31:17.617Z,7.00
2022-10-19T22:35:19.582Z,7.00
2022-10-19T22:39:21.413Z,7.00
2022-10-19T22:43:23.238Z,6.90
2022-10-19T22:47:25.126Z,6.80
2022-10-19T22:51:27.054Z,6.90
2022-10-19T22:55:28.791Z,6.80
2022-10-19T22:59:30.625Z,6.80
2022-10-19T23:03:32.711Z,6.70
2022-10-19T23:07:34.850Z,6.70
2022-10-19T23:11:36.760Z,6.70
2022-10-19T23:15:43.064Z,6.70
2022-10-19T23:19:46.273Z,6.60
2022-10-19T23:23:48.185Z,6.60
2022-10-19T23:27:50.339Z,6.60
2022-10-19T23:31:53.054Z,6.50
2022-10-19T23:35:54.949Z,6.50
2022-10-19T23:39:56.751Z,6.50
2022-10-19T23:43:58.580Z,6.50
2022-10-19T23:48:00.318Z,6.50
2022-10-19T23:52:02.223Z,6.30
2022-10-19T23:56:16.312Z,6.20
